sensor_id;sensor_type;location;lat;lon;timestamp;pressure;altitude;pressure_sealevel;temperature;humidity
29315;BME280;16320;53.954;9.506;2023-05-19T00:01:08;102639.88;;;7.06;100.00
29315;BME280;16320;53.954;9.506;2023-05-19T00:04:15;102637.28;;;7.00;100.00
29315;BME280;16320;53.954;9.506;2023-05-19T00:07:37;102641.66;;;6.95;100.00
29315;BME280;16320;53.954;9.506;2023-05-19T00:16:36;102640.75;;;7.07;100.00
29315;BME280;16320;53.954;9.506;2023-05-19T00:51:33;102628.75;;;6.70;100.00
29315;BME280;16320;53.954;9.506;2023-05-19T00:54:45;102625.28;;;6.68;100.00
29315;BME280;16320;53.954;9.506;2023-05-19T00:58:00;102628.75;;;6.70;100.00
29315;BME280;16320;53.954;9.506;2023-05-19T01:01:16;102620.09;;;6.62;100.00
29315;BME280;16320;53.954;9.506;2023-05-19T01:04:51;102619.22;;;6.60;100.00
29315;BME280;16320;53.954;9.506;2023-05-19T01:34:05;102637.63;;;6.32;100.00
29315;BME280;16320;53.954;9.506;2023-05-19T01:51:39;102639.38;;;6.24;100.00
29315;BME280;16320;53.954;9.506;2023-05-19T02:11:26;102632.44;;;6.17;100.00
29315;BME280;16320;53.954;9.506;2023-05-19T02:21:23;102630.72;;;6.03;100.00
29315;BME280;16320;53.954;9.506;2023-05-19T02:46:08;102636.81;;;5.93;100.00
29315;BME280;16320;53.954;9.506;2023-05-19T02:49:34;102630.72;;;5.97;100.00
29315;BME280;16320;53.954;9.506;2023-05-19T02:58:42;102637.66;;;5.84;100.00
29315;BME280;16320;53.954;9.506;2023-05-19T03:02:25;102635.91;;;5.93;100.00
29315;BME280;16320;53.954;9.506;2023-05-19T03:06:02;102627.25;;;6.03;100.00
29315;BME280;16320;53.954;9.506;2023-05-19T03:09:07;102629.81;;;6.11;100.00
29315;BME280;16320;53.954;9.506;2023-05-19T03:12:11;102622.03;;;6.04;100.00
29315;BME280;16320;53.954;9.506;2023-05-19T03:15:16;102623.75;;;6.07;100.00
29315;BME280;16320;53.954;9.506;2023-05-19T03:18:21;102622.00;;;6.08;100.00
29315;BME280;16320;53.954;9.506;2023-05-19T03:21:27;102623.75;;;6.12;100.00
29315;BME280;16320;53.954;9.506;2023-05-19T03:24:32;102624.66;;;6.06;100.00
29315;BME280;16320;53.954;9.506;2023-05-19T03:38:23;102639.41;;;5.99;100.00
29315;BME280;16320;53.954;9.506;2023-05-19T03:50:14;102632.44;;;6.08;100.00
29315;BME280;16320;53.954;9.506;2023-05-19T03:53:29;102628.97;;;6.15;100.00
29315;BME280;16320;53.954;9.506;2023-05-19T03:57:18;102629.81;;;6.26;100.00
29315;BME280;16320;53.954;9.506;2023-05-19T04:00:55;102628.94;;;6.27;100.00
29315;BME280;16320;53.954;9.506;2023-05-19T04:05:24;102636.72;;;6.30;100.00
29315;BME280;16320;53.954;9.506;2023-05-19T04:10:05;102634.13;;;6.30;100.00
29315;BME280;16320;53.954;9.506;2023-05-19T04:14:40;102642.84;;;6.26;100.00
29315;BME280;16320;53.954;9.506;2023-05-19T04:43:41;102649.78;;;6.33;100.00
29315;BME280;16320;53.954;9.506;2023-05-19T07:36:44;102650.44;;;11.18;100.00
29315;BME280;16320;53.954;9.506;2023-05-19T07:45:42;102636.59;;;11.48;100.00
29315;BME280;16320;53.954;9.506;2023-05-19T07:59:28;102623.00;;;11.99;100.00
29315;BME280;16320;53.954;9.506;2023-05-19T09:03:11;102542.91;;;13.71;100.00
29315;BME280;16320;53.954;9.506;2023-05-19T09:16:32;102546.13;;;13.80;100.00
29315;BME280;16320;53.954;9.506;2023-05-19T09:20:05;102537.91;;;13.87;100.00
29315;BME280;16320;53.954;9.506;2023-05-19T09:29:03;102518.16;;;14.21;100.00
29315;BME280;16320;53.954;9.506;2023-05-19T09:32:52;102528.19;;;14.35;100.00
29315;BME280;16320;53.954;9.506;2023-05-19T09:45:32;102507.84;;;14.61;100.00
29315;BME280;16320;53.954;9.506;2023-05-19T09:49:25;102509.53;;;14.84;100.00
29315;BME280;16320;53.954;9.506;2023-05-19T10:02:15;102505.63;;;14.93;100.00
29315;BME280;16320;53.954;9.506;2023-05-19T10:05:21;102494.88;;;14.97;100.00
29315;BME280;16320;53.954;9.506;2023-05-19T10:08:28;102492.03;;;15.02;100.00
29315;BME280;16320;53.954;9.506;2023-05-19T10:11:33;102490.56;;;14.95;100.00
29315;BME280;16320;53.954;9.506;2023-05-19T10:14:38;102487.41;;;14.87;100.00
29315;BME280;16320;53.954;9.506;2023-05-19T10:17:54;102486.97;;;14.75;100.00
29315;BME280;16320;53.954;9.506;2023-05-19T10:21:06;102484.06;;;14.81;100.00
29315;BME280;16320;53.954;9.506;2023-05-19T10:24:25;102485.00;;;15.01;100.00
29315;BME280;16320;53.954;9.506;2023-05-19T10:27:42;102478.00;;;15.20;100.00
29315;BME280;16320;53.954;9.506;2023-05-19T10:30:57;102475.41;;;15.40;100.00
29315;BME280;16320;53.954;9.506;2023-05-19T10:42:12;102462.22;;;15.79;100.00
29315;BME280;16320;53.954;9.506;2023-05-19T10:45:26;102460.91;;;16.07;100.00
29315;BME280;16320;53.954;9.506;2023-05-19T10:48:37;102457.41;;;16.43;100.00
29315;BME280;16320;53.954;9.506;2023-05-19T10:51:44;102452.94;;;16.80;100.00
29315;BME280;16320;53.954;9.506;2023-05-19T10:54:52;102445.97;;;17.12;100.00
29315;BME280;16320;53.954;9.506;2023-05-19T10:57:58;102435.75;;;17.55;100.00
29315;BME280;16320;53.954;9.506;2023-05-19T11:01:17;102435.63;;;18.06;100.00
29315;BME280;16320;53.954;9.506;2023-05-19T11:04:44;102434.03;;;17.88;100.00
29315;BME280;16320;53.954;9.506;2023-05-19T11:07:57;102431.97;;;17.93;100.00
29315;BME280;16320;53.954;9.506;2023-05-19T11:11:16;102429.03;;;18.29;100.00
29315;BME280;16320;53.954;9.506;2023-05-19T11:14:24;102432.75;;;18.57;100.00
29315;BME280;16320;53.954;9.506;2023-05-19T11:17:29;102427.88;;;18.80;100.00
29315;BME280;16320;53.954;9.506;2023-05-19T11:20:37;102422.53;;;19.10;100.00
29315;BME280;16320;53.954;9.506;2023-05-19T11:23:42;102417.28;;;19.09;100.00
29315;BME280;16320;53.954;9.506;2023-05-19T11:26:47;102416.72;;;19.03;100.00
29315;BME280;16320;53.954;9.506;2023-05-19T11:29:56;102424.63;;;19.19;100.00
29315;BME280;16320;53.954;9.506;2023-05-19T11:33:03;102423.88;;;19.32;100.00
29315;BME280;16320;53.954;9.506;2023-05-19T11:36:09;102413.97;;;19.48;100.00
29315;BME280;16320;53.954;9.506;2023-05-19T11:39:14;102418.25;;;19.51;100.00
29315;BME280;16320;53.954;9.506;2023-05-19T11:42:20;102413.19;;;19.46;100.00
29315;BME280;16320;53.954;9.506;2023-05-19T11:45:30;102404.38;;;19.46;100.00
29315;BME280;16320;53.954;9.506;2023-05-19T11:48:36;102403.97;;;19.52;100.00
29315;BME280;16320;53.954;9.506;2023-05-19T11:51:43;102406.06;;;19.61;100.00
29315;BME280;16320;53.954;9.506;2023-05-19T11:54:48;102402.16;;;19.81;100.00
29315;BME280;16320;53.954;9.506;2023-05-19T11:58:02;102397.38;;;19.86;100.00
29315;BME280;16320;53.954;9.506;2023-05-19T12:01:11;102398.44;;;19.84;100.00
29315;BME280;16320;53.954;9.506;2023-05-19T12:04:18;102394.34;;;19.78;100.00
29315;BME280;16320;53.954;9.506;2023-05-19T12:07:23;102397.09;;;19.91;100.00
29315;BME280;16320;53.954;9.506;2023-05-19T12:10:30;102393.16;;;19.97;100.00
29315;BME280;16320;53.954;9.506;2023-05-19T12:13:36;102397.75;;;19.80;99.44
29315;BME280;16320;53.954;9.506;2023-05-19T12:16:41;102396.69;;;19.12;100.00
29315;BME280;16320;53.954;9.506;2023-05-19T12:19:47;102397.91;;;18.16;100.00
29315;BME280;16320;53.954;9.506;2023-05-19T12:22:56;102391.09;;;17.62;100.00
29315;BME280;16320;53.954;9.506;2023-05-19T12:26:08;102401.56;;;17.81;100.00
29315;BME280;16320;53.954;9.506;2023-05-19T12:29:14;102391.63;;;17.69;100.00
29315;BME280;16320;53.954;9.506;2023-05-19T12:32:26;102394.88;;;17.58;100.00
29315;BME280;16320;53.954;9.506;2023-05-19T12:35:32;102392.66;;;17.17;100.00
29315;BME280;16320;53.954;9.506;2023-05-19T12:38:40;102385.41;;;17.20;100.00
29315;BME280;16320;53.954;9.506;2023-05-19T12:41:50;102383.91;;;17.48;100.00
29315;BME280;16320;53.954;9.506;2023-05-19T12:44:58;102373.94;;;17.84;100.00
29315;BME280;16320;53.954;9.506;2023-05-19T12:48:15;102369.28;;;18.35;100.00
29315;BME280;16320;53.954;9.506;2023-05-19T12:51:21;102361.41;;;18.78;100.00
29315;BME280;16320;53.954;9.506;2023-05-19T12:54:31;102363.13;;;18.79;100.00
29315;BME280;16320;53.954;9.506;2023-05-19T12:57:43;102367.88;;;18.44;100.00
29315;BME280;16320;53.954;9.506;2023-05-19T13:00:48;102376.72;;;17.98;100.00
29315;BME280;16320;53.954;9.506;2023-05-19T13:03:54;102373.28;;;17.64;100.00
29315;BME280;16320;53.954;9.506;2023-05-19T13:07:00;102363.47;;;17.33;100.00
29315;BME280;16320;53.954;9.506;2023-05-19T13:10:06;102369.28;;;16.90;100.00
29315;BME280;16320;53.954;9.506;2023-05-19T13:13:14;102360.06;;;16.80;100.00
29315;BME280;16320;53.954;9.506;2023-05-19T13:16:21;102355.34;;;17.02;100.00
29315;BME280;16320;53.954;9.506;2023-05-19T13:19:27;102364.59;;;17.29;100.00
29315;BME280;16320;53.954;9.506;2023-05-19T13:22:35;102339.16;;;17.41;100.00
29315;BME280;16320;53.954;9.506;2023-05-19T13:25:42;102351.03;;;17.33;100.00
29315;BME280;16320;53.954;9.506;2023-05-19T13:28:47;102341.13;;;17.37;100.00
29315;BME280;16320;53.954;9.506;2023-05-19T13:31:51;102345.25;;;17.43;100.00
29315;BME280;16320;53.954;9.506;2023-05-19T13:34:56;102338.13;;;17.43;100.00
29315;BME280;16320;53.954;9.506;2023-05-19T13:38:00;102332.81;;;17.59;100.00
29315;BME280;16320;53.954;9.506;2023-05-19T13:41:10;102335.81;;;17.69;100.00
29315;BME280;16320;53.954;9.506;2023-05-19T13:44:16;102330.59;;;17.67;100.00
29315;BME280;16320;53.954;9.506;2023-05-19T13:47:22;102329.91;;;17.48;100.00
29315;BME280;16320;53.954;9.506;2023-05-19T13:50:29;102338.78;;;17.15;100.00
29315;BME280;16320;53.954;9.506;2023-05-19T13:53:39;102334.09;;;17.02;100.00
29315;BME280;16320;53.954;9.506;2023-05-19T13:56:47;102320.22;;;16.97;100.00
29315;BME280;16320;53.954;9.506;2023-05-19T13:59:53;102315.66;;;17.17;100.00
29315;BME280;16320;53.954;9.506;2023-05-19T14:03:06;102310.72;;;17.43;100.00
29315;BME280;16320;53.954;9.506;2023-05-19T14:06:11;102318.34;;;17.65;100.00
29315;BME280;16320;53.954;9.506;2023-05-19T14:09:19;102323.19;;;17.72;100.00
29315;BME280;16320;53.954;9.506;2023-05-19T14:12:25;102317.03;;;17.56;100.00
29315;BME280;16320;53.954;9.506;2023-05-19T14:15:43;102317.22;;;17.53;100.00
29315;BME280;16320;53.954;9.506;2023-05-19T14:18:48;102320.22;;;17.63;100.00
29315;BME280;16320;53.954;9.506;2023-05-19T14:21:53;102324.91;;;17.42;100.00
29315;BME280;16320;53.954;9.506;2023-05-19T14:24:58;102320.31;;;17.29;100.00
29315;BME280;16320;53.954;9.506;2023-05-19T14:28:13;102315.66;;;17.17;100.00
29315;BME280;16320;53.954;9.506;2023-05-19T14:31:28;102314.50;;;17.38;100.00
29315;BME280;16320;53.954;9.506;2023-05-19T14:34:33;102323.91;;;17.44;100.00
29315;BME280;16320;53.954;9.506;2023-05-19T14:37:43;102322.19;;;17.27;100.00
29315;BME280;16320;53.954;9.506;2023-05-19T14:40:54;102323.16;;;17.09;100.00
29315;BME280;16320;53.954;9.506;2023-05-19T14:44:15;102323.41;;;16.88;100.00
29315;BME280;16320;53.954;9.506;2023-05-19T14:47:29;102325.56;;;16.80;100.00
29315;BME280;16320;53.954;9.506;2023-05-19T14:50:34;102328.22;;;16.80;100.00
29315;BME280;16320;53.954;9.506;2023-05-19T14:53:38;102323.84;;;16.96;100.00
29315;BME280;16320;53.954;9.506;2023-05-19T15:00:30;102309.25;;;17.21;100.00
29315;BME280;16320;53.954;9.506;2023-05-19T15:03:34;102317.22;;;17.21;100.00
29315;BME280;16320;53.954;9.506;2023-05-19T15:06:39;102311.97;;;17.19;100.00
29315;BME280;16320;53.954;9.506;2023-05-19T15:09:49;102317.91;;;17.25;100.00
29315;BME280;16320;53.954;9.506;2023-05-19T15:12:58;102316.00;;;17.27;100.00
29315;BME280;16320;53.954;9.506;2023-05-19T15:16:06;102319.00;;;17.20;100.00
29315;BME280;16320;53.954;9.506;2023-05-19T15:19:21;102311.63;;;17.10;100.00
29315;BME280;16320;53.954;9.506;2023-05-19T15:22:27;102312.03;;;16.84;100.00
29315;BME280;16320;53.954;9.506;2023-05-19T15:25:43;102304.59;;;16.58;100.00
29315;BME280;16320;53.954;9.506;2023-05-19T15:28:51;102308.75;;;16.46;100.00
29315;BME280;16320;53.954;9.506;2023-05-19T15:31:56;102306.63;;;16.35;100.00
29315;BME280;16320;53.954;9.506;2023-05-19T15:35:02;102299.75;;;16.31;100.00
29315;BME280;16320;53.954;9.506;2023-05-19T15:38:09;102300.53;;;16.51;100.00
29315;BME280;16320;53.954;9.506;2023-05-19T15:41:15;102298.91;;;16.65;100.00
29315;BME280;16320;53.954;9.506;2023-05-19T15:44:21;102290.13;;;16.81;100.00
29315;BME280;16320;53.954;9.506;2023-05-19T15:47:29;102305.88;;;16.84;100.00
29315;BME280;16320;53.954;9.506;2023-05-19T15:50:48;102302.00;;;16.74;100.00
29315;BME280;16320;53.954;9.506;2023-05-19T15:53:55;102314.28;;;16.59;100.00
29315;BME280;16320;53.954;9.506;2023-05-19T15:57:05;102321.34;;;16.41;100.00
29315;BME280;16320;53.954;9.506;2023-05-19T16:00:12;102321.31;;;16.25;100.00
29315;BME280;16320;53.954;9.506;2023-05-19T16:03:20;102308.72;;;16.11;100.00
29315;BME280;16320;53.954;9.506;2023-05-19T16:06:27;102318.22;;;15.98;100.00
29315;BME280;16320;53.954;9.506;2023-05-19T16:09:31;102308.53;;;15.79;100.00
29315;BME280;16320;53.954;9.506;2023-05-19T16:12:40;102313.97;;;15.76;100.00
29315;BME280;16320;53.954;9.506;2023-05-19T16:16:32;102312.88;;;15.80;100.00
29315;BME280;16320;53.954;9.506;2023-05-19T16:20:03;102301.38;;;15.81;100.00
29315;BME280;16320;53.954;9.506;2023-05-19T16:23:11;102303.53;;;15.90;100.00
29315;BME280;16320;53.954;9.506;2023-05-19T16:26:19;102297.72;;;16.01;100.00
29315;BME280;16320;53.954;9.506;2023-05-19T16:29:25;102297.56;;;16.04;100.00
29315;BME280;16320;53.954;9.506;2023-05-19T16:32:30;102297.44;;;16.07;100.00
29315;BME280;16320;53.954;9.506;2023-05-19T16:35:37;102294.94;;;16.04;100.00
29315;BME280;16320;53.954;9.506;2023-05-19T16:38:42;102295.63;;;16.08;100.00
29315;BME280;16320;53.954;9.506;2023-05-19T16:41:48;102304.91;;;15.99;100.00
29315;BME280;16320;53.954;9.506;2023-05-19T16:44:56;102296.25;;;15.96;100.00
29315;BME280;16320;53.954;9.506;2023-05-19T16:48:02;102302.78;;;15.88;100.00
29315;BME280;16320;53.954;9.506;2023-05-19T16:51:32;102303.72;;;15.87;100.00
29315;BME280;16320;53.954;9.506;2023-05-19T17:00:09;102306.38;;;15.87;100.00
29315;BME280;16320;53.954;9.506;2023-05-19T17:04:32;102305.63;;;15.84;100.00
29315;BME280;16320;53.954;9.506;2023-05-19T17:18:57;102295.06;;;15.65;100.00
29315;BME280;16320;53.954;9.506;2023-05-19T17:27:38;102308.53;;;15.41;100.00
29315;BME280;16320;53.954;9.506;2023-05-19T17:31:29;102311.44;;;15.35;100.00
29315;BME280;16320;53.954;9.506;2023-05-19T17:39:09;102310.81;;;15.30;100.00
29315;BME280;16320;53.954;9.506;2023-05-19T17:42:16;102308.09;;;15.31;100.00
29315;BME280;16320;53.954;9.506;2023-05-19T17:45:21;102316.38;;;15.24;100.00
29315;BME280;16320;53.954;9.506;2023-05-19T17:48:25;102319.47;;;15.14;100.00
29315;BME280;16320;53.954;9.506;2023-05-19T17:51:29;102324.41;;;15.03;100.00
29315;BME280;16320;53.954;9.506;2023-05-19T17:54:35;102326.28;;;14.99;100.00
29315;BME280;16320;53.954;9.506;2023-05-19T17:57:43;102327.81;;;15.05;100.00
29315;BME280;16320;53.954;9.506;2023-05-19T18:00:49;102333.19;;;15.04;100.00
29315;BME280;16320;53.954;9.506;2023-05-19T18:03:54;102337.13;;;14.95;100.00
29315;BME280;16320;53.954;9.506;2023-05-19T18:07:01;102334.88;;;14.86;100.00
29315;BME280;16320;53.954;9.506;2023-05-19T18:10:08;102344.78;;;14.80;100.00
29315;BME280;16320;53.954;9.506;2023-05-19T18:13:13;102346.78;;;14.75;100.00
29315;BME280;16320;53.954;9.506;2023-05-19T18:16:17;102349.94;;;14.63;100.00
29315;BME280;16320;53.954;9.506;2023-05-19T18:19:22;102350.97;;;14.59;100.00
29315;BME280;16320;53.954;9.506;2023-05-19T18:22:26;102349.50;;;14.52;100.00
29315;BME280;16320;53.954;9.506;2023-05-19T18:25:31;102354.81;;;14.52;100.00
29315;BME280;16320;53.954;9.506;2023-05-19T18:28:35;102360.28;;;14.47;100.00
29315;BME280;16320;53.954;9.506;2023-05-19T18:31:40;102371.03;;;14.42;100.00
29315;BME280;16320;53.954;9.506;2023-05-19T18:34:47;102382.88;;;14.34;100.00
29315;BME280;16320;53.954;9.506;2023-05-19T18:37:54;102383.84;;;14.31;100.00
29315;BME280;16320;53.954;9.506;2023-05-19T18:41:00;102389.53;;;14.22;100.00
29315;BME280;16320;53.954;9.506;2023-05-19T18:44:07;102390.72;;;14.13;100.00
29315;BME280;16320;53.954;9.506;2023-05-19T18:47:12;102394.72;;;14.01;100.00
29315;BME280;16320;53.954;9.506;2023-05-19T18:50:17;102391.59;;;13.91;100.00
29315;BME280;16320;53.954;9.506;2023-05-19T18:53:21;102403.28;;;13.86;100.00
29315;BME280;16320;53.954;9.506;2023-05-19T18:56:27;102405.31;;;13.78;100.00
29315;BME280;16320;53.954;9.506;2023-05-19T18:59:34;102396.72;;;13.72;100.00
29315;BME280;16320;53.954;9.506;2023-05-19T19:02:39;102407.53;;;13.66;100.00
29315;BME280;16320;53.954;9.506;2023-05-19T19:05:44;102411.31;;;13.59;100.00
29315;BME280;16320;53.954;9.506;2023-05-19T19:08:52;102410.00;;;13.47;100.00
29315;BME280;16320;53.954;9.506;2023-05-19T19:11:59;102424.16;;;13.45;100.00
29315;BME280;16320;53.954;9.506;2023-05-19T19:15:10;102427.16;;;13.35;100.00
29315;BME280;16320;53.954;9.506;2023-05-19T19:18:22;102432.72;;;13.26;100.00
29315;BME280;16320;53.954;9.506;2023-05-19T19:21:33;102428.56;;;13.19;100.00
29315;BME280;16320;53.954;9.506;2023-05-19T19:24:41;102434.19;;;13.10;100.00
29315;BME280;16320;53.954;9.506;2023-05-19T19:27:48;102434.41;;;13.04;100.00
29315;BME280;16320;53.954;9.506;2023-05-19T19:30:58;102442.56;;;12.96;100.00
29315;BME280;16320;53.954;9.506;2023-05-19T19:34:14;102448.81;;;12.93;100.00
29315;BME280;16320;53.954;9.506;2023-05-19T19:37:37;102438.56;;;12.84;100.00
29315;BME280;16320;53.954;9.506;2023-05-19T19:41:02;102454.69;;;12.75;100.00
29315;BME280;16320;53.954;9.506;2023-05-19T19:49:55;102459.50;;;12.62;100.00
29315;BME280;16320;53.954;9.506;2023-05-19T20:26:36;102475.03;;;12.15;100.00
29315;BME280;16320;53.954;9.506;2023-05-19T20:35:52;102490.25;;;12.05;100.00
29315;BME280;16320;53.954;9.506;2023-05-19T21:01:43;102503.06;;;11.86;100.00
29315;BME280;16320;53.954;9.506;2023-05-19T21:13:39;102514.34;;;11.60;100.00
29315;BME280;16320;53.954;9.506;2023-05-19T21:17:50;102519.78;;;11.53;100.00
29315;BME280;16320;53.954;9.506;2023-05-19T21:25:53;102512.22;;;11.41;100.00
29315;BME280;16320;53.954;9.506;2023-05-19T21:30:19;102513.22;;;11.35;100.00
29315;BME280;16320;53.954;9.506;2023-05-19T21:33:58;102519.41;;;11.34;100.00
29315;BME280;16320;53.954;9.506;2023-05-19T21:40:26;102514.47;;;11.21;100.00
29315;BME280;16320;53.954;9.506;2023-05-19T21:43:58;102532.94;;;11.19;100.00
29315;BME280;16320;53.954;9.506;2023-05-19T21:51:02;102527.03;;;11.09;100.00
29315;BME280;16320;53.954;9.506;2023-05-19T22:05:10;102540.88;;;10.81;100.00
29315;BME280;16320;53.954;9.506;2023-05-19T22:09:16;102537.50;;;10.76;100.00
29315;BME280;16320;53.954;9.506;2023-05-19T22:13:03;102531.44;;;10.73;100.00
29315;BME280;16320;53.954;9.506;2023-05-19T22:17:10;102535.25;;;10.59;100.00
29315;BME280;16320;53.954;9.506;2023-05-19T22:25:25;102543.31;;;10.52;100.00
29315;BME280;16320;53.954;9.506;2023-05-19T22:28:48;102548.63;;;10.49;100.00
29315;BME280;16320;53.954;9.506;2023-05-19T22:32:36;102553.09;;;10.45;100.00
29315;BME280;16320;53.954;9.506;2023-05-19T22:37:15;102543.56;;;10.39;100.00
29315;BME280;16320;53.954;9.506;2023-05-19T22:40:29;102544.59;;;10.34;100.00
29315;BME280;16320;53.954;9.506;2023-05-19T22:44:29;102549.13;;;10.24;100.00
29315;BME280;16320;53.954;9.506;2023-05-19T22:47:49;102548.34;;;10.20;100.00
29315;BME280;16320;53.954;9.506;2023-05-19T23:00:29;102547.72;;;10.07;100.00
29315;BME280;16320;53.954;9.506;2023-05-19T23:03:49;102544.28;;;10.04;100.00
29315;BME280;16320;53.954;9.506;2023-05-19T23:11:14;102550.63;;;9.94;100.00
29315;BME280;16320;53.954;9.506;2023-05-19T23:14:34;102550.72;;;9.87;100.00
29315;BME280;16320;53.954;9.506;2023-05-19T23:17:55;102553.44;;;9.83;100.00
29315;BME280;16320;53.954;9.506;2023-05-19T23:21:08;102549.19;;;9.77;100.00
29315;BME280;16320;53.954;9.506;2023-05-19T23:24:32;102556.22;;;9.75;100.00
29315;BME280;16320;53.954;9.506;2023-05-19T23:27:46;102560.69;;;9.71;100.00
29315;BME280;16320;53.954;9.506;2023-05-19T23:31:13;102560.69;;;9.71;100.00
29315;BME280;16320;53.954;9.506;2023-05-19T23:38:37;102546.91;;;9.60;100.00
29315;BME280;16320;53.954;9.506;2023-05-19T23:41:55;102554.91;;;9.52;100.00
29315;BME280;16320;53.954;9.506;2023-05-19T23:45:06;102564.44;;;9.57;100.00
29315;BME280;16320;53.954;9.506;2023-05-19T23:48:12;102561.06;;;9.50;100.00
29315;BME280;16320;53.954;9.506;2023-05-19T23:51:19;102566.41;;;9.44;100.00
29315;BME280;16320;53.954;9.506;2023-05-19T23:54:27;102569.09;;;9.41;100.00
29315;BME280;16320;53.954;9.506;2023-05-19T23:57:48;102582.25;;;9.38;100.00
